Time;durP1;ratioP1;P1;durP2;ratioP2;P2;SDS_P1;SDS_P2;PMS_P1;PMS_P2;Temp;Humidity;BMP_temperature;BMP_pressure;BME280_temperature;BME280_humidity;BME280_pressure;Samples;Min_cycle;Max_cycle;Signal;HPM_P1;HPM_P2
2021/12/18 00:00:23;;;;;;;;;;;;;;;7.98;90.08;103870.34;5031438;28;20026;-73
2021/12/18 00:02:53;;;;;;;18.73;13.25;;;;;;;7.91;91.15;103863.81;5029575;28;20272;-71
2021/12/18 00:05:21;;;;;;;18.13;12.05;;;;;;;7.94;90.42;103865.34;5030968;28;20108;-72
2021/12/18 00:07:52;;;;;;;20.02;13.10;;;;;;;7.87;90.91;103856.97;5030724;28;20468;-72
2021/12/18 00:10:23;;;;;;;18.08;12.60;;;;;;;7.88;91.50;103860.50;5030560;28;20116;-70
2021/12/18 00:12:52;;;;;;;16.50;11.88;;;;;;;7.88;90.71;103858.69;5030773;28;20513;-69
2021/12/18 00:15:21;;;;;;;16.85;11.43;;;;;;;7.89;90.86;103846.88;5030761;28;20040;-73
2021/12/18 00:17:47;;;;;;;17.77;12.07;;;;;;;7.94;90.47;103857.28;5031121;28;20056;-74
2021/12/18 00:20:15;;;;;;;16.45;11.73;;;;;;;7.95;90.99;103854.44;5030647;28;20025;-72
2021/12/18 00:22:40;;;;;;;16.70;11.63;;;;;;;7.94;91.10;103859.97;5031163;28;20068;-72
2021/12/18 00:25:07;;;;;;;15.55;10.85;;;;;;;7.89;91.16;103854.13;5030911;28;20065;-70
2021/12/18 00:27:33;;;;;;;15.13;10.35;;;;;;;7.88;90.98;103853.28;5030777;28;20384;-70
2021/12/18 00:29:59;;;;;;;15.38;10.75;;;;;;;7.92;91.25;103849.31;5032405;28;20025;-72
2021/12/18 00:32:24;;;;;;;16.45;10.80;;;;;;;7.91;91.59;103839.53;5030590;28;20128;-73
2021/12/18 00:34:52;;;;;;;15.68;10.48;;;;;;;7.89;91.18;103844.19;5031035;28;20534;-73
2021/12/18 00:37:23;;;;;;;16.83;10.68;;;;;;;7.83;91.36;103846.56;5030307;28;20041;-71
2021/12/18 00:39:58;;;;;;;15.63;9.60;;;;;;;7.79;92.29;103851.41;5030682;28;20063;-70
2021/12/18 00:43:21;;;;;;;15.20;9.65;;;;;;;7.73;92.13;103843.81;5030285;28;20026;-72
2021/12/18 00:45:21;;;;;;;14.93;9.60;;;;;;;7.66;91.97;103843.50;5023466;28;20079;-73
2021/12/18 00:47:53;;;;;;;13.07;9.02;;;;;;;7.67;92.05;103836.25;5030234;28;20076;-70
2021/12/18 00:50:31;;;;;;;14.93;9.50;;;;;;;7.69;92.16;103837.00;5030310;28;20033;-71
2021/12/18 00:53:00;;;;;;;14.52;9.38;;;;;;;7.68;91.70;103835.28;5030580;28;20079;-72
2021/12/18 00:55:30;;;;;;;14.18;9.02;;;;;;;7.66;91.27;103835.41;5030321;28;20033;-73
2021/12/18 00:57:59;;;;;;;12.90;8.23;;;;;;;7.63;91.48;103832.97;5030784;28;20025;-70
2021/12/18 01:00:28;;;;;;;13.85;8.55;;;;;;;7.66;91.27;103834.56;5029464;28;20033;-71
2021/12/18 01:03:01;;;;;;;14.10;8.70;;;;;;;7.62;91.36;103826.75;5031317;28;20497;-73
2021/12/18 01:05:31;;;;;;;14.00;8.80;;;;;;;7.65;91.69;103830.16;5034177;28;20037;-71
2021/12/18 01:08:01;;;;;;;14.10;8.27;;;;;;;7.66;91.11;103831.88;5034247;28;20025;-69
2021/12/18 01:13:10;;;;;;;12.93;7.80;;;;;;;7.60;90.96;103828.69;5035819;28;20047;-72
2021/12/18 01:15:43;;;;;;;11.73;8.07;;;;;;;7.63;91.69;103825.72;5033865;28;20026;-70
2021/12/18 01:23:41;;;;;;;12.00;7.93;;;;;;;7.65;90.91;103822.06;5035100;28;20603;-73
2021/12/18 01:26:10;;;;;;;11.35;7.68;;;;;;;7.71;91.03;103816.97;5034025;28;20033;-72
2021/12/18 01:28:40;;;;;;;12.15;7.53;;;;;;;7.70;90.63;103815.31;5033643;28;20392;-72
2021/12/18 01:31:09;;;;;;;11.80;7.65;;;;;;;7.68;90.45;103816.41;5034012;28;20025;-70
2021/12/18 01:33:37;;;;;;;10.73;7.28;;;;;;;7.68;90.66;103816.41;5033678;28;20388;-72
2021/12/18 01:36:06;;;;;;;11.82;7.55;;;;;;;7.64;90.43;103821.22;5033724;28;20045;-69
2021/12/18 01:38:36;;;;;;;11.52;7.22;;;;;;;7.63;91.22;103824.91;5033415;28;20040;-70
2021/12/18 01:41:04;;;;;;;10.38;7.13;;;;;;;7.66;91.19;103829.19;5032382;28;20036;-71
2021/12/18 01:52:15;;;;;;;11.70;7.57;;;;;;;7.69;91.07;103837.00;5034952;28;20049;-70
2021/12/18 01:54:44;;;;;;;10.70;7.50;;;;;;;7.69;90.81;103842.38;5032851;28;20445;-70
2021/12/18 01:57:13;;;;;;;12.98;7.80;;;;;;;7.66;91.19;103845.34;5033437;28;20029;-71
2021/12/18 01:59:47;;;;;;;11.13;7.70;;;;;;;7.65;90.77;103838.25;5033181;28;20037;-70
2021/12/18 02:02:16;;;;;;;12.32;7.68;;;;;;;7.65;90.68;103841.78;5031149;28;20037;-73
2021/12/18 02:04:46;;;;;;;11.38;7.45;;;;;;;7.60;90.75;103839.47;5033035;28;20091;-71
2021/12/18 02:07:16;;;;;;;11.60;7.13;;;;;;;7.62;90.67;103844.75;5033270;28;20431;-73
2021/12/18 02:10:06;;;;;;;11.00;7.68;;;;;;;7.54;91.11;103842.69;5032774;28;20033;-71
2021/12/18 02:12:46;;;;;;;13.00;7.80;;;;;;;7.53;90.92;103840.97;5032713;28;20037;-72
2021/12/18 02:20:50;;;;;;;15.52;8.98;;;;;;;7.46;91.75;103831.75;5033969;28;20051;-70
2021/12/18 02:23:20;;;;;;;11.77;7.97;;;;;;;7.51;91.91;103834.88;5032976;28;20025;-70
2021/12/18 02:25:50;;;;;;;14.52;8.80;;;;;;;7.50;91.02;103833.16;5032890;28;20052;-70
2021/12/18 02:28:24;;;;;;;14.15;8.75;;;;;;;7.50;92.06;103832.31;5032991;28;20025;-73
2021/12/18 02:30:55;;;;;;;15.13;8.95;;;;;;;7.50;91.70;103825.06;5032842;28;20059;-70
2021/12/18 02:33:25;;;;;;;13.98;8.45;;;;;;;7.48;92.18;103827.06;5032597;28;20036;-70
2021/12/18 02:35:55;;;;;;;14.65;8.57;;;;;;;7.53;91.97;103827.50;5032167;28;20049;-71
2021/12/18 02:38:30;;;;;;;15.73;9.75;;;;;;;7.47;91.32;103825.34;5032680;28;20029;-72
2021/12/18 02:41:15;;;;;;;16.17;10.00;;;;;;;7.57;91.69;103830.81;5032660;28;20044;-72
2021/12/18 02:43:45;;;;;;;14.75;9.18;;;;;;;7.58;91.11;103819.91;5032010;28;20524;-70
2021/12/18 02:46:22;;;;;;;15.07;9.75;;;;;;;7.57;91.44;103818.19;5032351;28;20167;-73
2021/12/18 02:48:53;;;;;;;13.93;9.23;;;;;;;7.55;91.73;103817.47;5031277;28;20084;-71
2021/12/18 02:51:24;;;;;;;19.67;11.10;;;;;;;7.56;91.67;103821.88;5032258;28;20418;-71
2021/12/18 02:53:57;;;;;;;15.48;9.70;;;;;;;7.56;91.54;103815.63;5032116;28;20450;-71
2021/12/18 02:56:25;;;;;;;;;;;;;;;7.68;90.93;103819.94;5032724;28;20034;-73
2021/12/18 02:59:04;;;;;;;15.55;9.93;;;;;;;7.59;91.95;103810.84;5032149;28;19966;-70
2021/12/18 03:01:36;;;;;;;16.02;10.00;;;;;;;7.65;91.98;103804.03;5029661;28;20103;-70
2021/12/18 03:04:17;;;;;;;15.25;10.45;;;;;;;7.62;91.68;103799.78;5031927;28;20029;-70
2021/12/18 03:06:51;;;;;;;16.00;9.88;;;;;;;7.64;91.23;103802.34;5031740;28;20029;-70
2021/12/18 03:25:29;;;;;;;13.95;9.00;;;;;;;7.56;91.32;103788.66;5032842;28;20029;-69
2021/12/18 03:28:00;;;;;;;13.98;8.27;;;;;;;7.47;91.75;103779.53;5031714;28;20036;-72
2021/12/18 03:30:28;;;;;;;15.50;9.38;;;;;;;7.43;91.55;103789.72;5031756;28;20049;-73
2021/12/18 03:32:58;;;;;;;20.52;9.50;;;;;;;7.39;92.23;103796.38;5031124;28;20409;-70
2021/12/18 03:35:27;;;;;;;16.35;9.57;;;;;;;7.36;92.58;103793.94;5031311;28;20389;-70
2021/12/18 03:37:58;;;;;;;16.08;9.65;;;;;;;7.40;92.80;103792.69;5031181;28;20479;-73
2021/12/18 03:40:27;;;;;;;16.15;9.38;;;;;;;7.48;92.46;103785.81;5031512;28;20029;-70
2021/12/18 03:42:58;;;;;;;17.65;9.70;;;;;;;7.47;92.76;103793.00;5031408;28;20487;-73
2021/12/18 03:45:29;;;;;;;15.40;9.73;;;;;;;7.43;91.97;103794.28;5031876;28;20393;-73
2021/12/18 03:47:59;;;;;;;16.13;9.43;;;;;;;7.44;91.87;103790.56;5030942;28;20022;-72
2021/12/18 03:50:30;;;;;;;16.58;9.77;;;;;;;7.46;92.53;103796.72;5031151;28;20061;-71
2021/12/18 03:53:01;;;;;;;14.93;9.25;;;;;;;7.45;92.46;103811.16;5031115;28;20025;-74
2021/12/18 03:55:29;;;;;;;14.70;9.30;;;;;;;7.40;92.78;103802.63;5031430;28;20111;-73
2021/12/18 03:57:55;;;;;;;15.50;10.10;;;;;;;7.38;92.61;103807.28;5031053;28;20104;-73
2021/12/18 04:00:22;;;;;;;15.75;9.75;;;;;;;7.40;92.26;103808.00;5031105;28;20074;-73
2021/12/18 04:02:48;;;;;;;15.30;9.55;;;;;;;7.38;92.80;103809.97;5029026;28;20025;-72
2021/12/18 04:05:14;;;;;;;14.80;8.88;;;;;;;7.35;92.26;103802.16;5031084;28;20043;-73
2021/12/18 04:07:42;;;;;;;14.32;9.20;;;;;;;7.36;91.88;103806.56;5032385;28;20033;-70
2021/12/18 04:10:12;;;;;;;14.77;8.80;;;;;;;7.31;92.12;103811.47;5031446;28;20025;-73
2021/12/18 04:12:38;;;;;;;13.50;8.68;;;;;;;7.26;92.94;103812.72;5031065;28;20392;-70
2021/12/18 04:15:05;;;;;;;12.95;8.82;;;;;;;7.23;93.15;103799.53;5032609;28;20029;-73
2021/12/18 04:17:30;;;;;;;14.20;8.75;;;;;;;7.22;93.17;103800.50;5030722;28;20039;-73
2021/12/18 04:19:55;;;;;;;14.40;9.45;;;;;;;7.22;93.23;103800.50;5031059;28;20136;-69
2021/12/18 04:22:21;;;;;;;13.65;9.13;;;;;;;7.22;93.31;103803.19;5031290;28;20041;-72
2021/12/18 04:24:47;;;;;;;13.35;8.95;;;;;;;7.20;93.32;103804.31;5032357;28;20120;-72
2021/12/18 04:27:12;;;;;;;14.15;8.77;;;;;;;7.19;93.23;103803.47;5032175;28;20132;-72
2021/12/18 04:29:37;;;;;;;13.73;8.57;;;;;;;7.25;92.97;103802.94;5032182;28;20088;-70
2021/12/18 04:32:03;;;;;;;13.30;8.77;;;;;;;7.31;93.46;103798.00;5032472;28;20033;-72
2021/12/18 04:34:28;;;;;;;14.02;8.57;;;;;;;7.29;93.17;103795.44;5030511;28;20037;-69
2021/12/18 04:36:53;;;;;;;13.90;8.65;;;;;;;7.31;93.03;103795.31;5032187;28;20385;-73
2021/12/18 04:39:19;;;;;;;15.18;9.25;;;;;;;7.33;93.37;103798.75;5034345;28;20124;-72
2021/12/18 04:41:50;;;;;;;14.88;8.80;;;;;;;7.37;93.42;103800.19;5034688;28;20048;-71
2021/12/18 04:44:16;;;;;;;13.95;8.65;;;;;;;7.38;93.67;103799.19;5034810;28;20038;-71
2021/12/18 04:46:42;;;;;;;15.38;9.07;;;;;;;7.36;93.58;103809.25;5034592;28;20025;-70
2021/12/18 04:49:10;;;;;;;15.02;9.25;;;;;;;7.29;93.04;103806.22;5034163;28;20022;-73
2021/12/18 04:51:39;;;;;;;27.75;18.33;;;;;;;7.22;92.96;103813.97;5034452;28;20036;-72
2021/12/18 04:54:06;;;;;;;15.23;10.55;;;;;;;7.26;93.23;103809.16;5034327;28;20060;-69
2021/12/18 04:56:33;;;;;;;13.60;8.90;;;;;;;7.25;92.98;103810.16;5034471;28;20167;-69
2021/12/18 04:58:59;;;;;;;13.85;9.02;;;;;;;7.24;93.50;103814.69;5034535;28;20494;-69
2021/12/18 05:01:25;;;;;;;12.98;8.90;;;;;;;7.24;93.65;103814.69;5032161;28;20481;-71
2021/12/18 05:03:51;;;;;;;14.02;8.80;;;;;;;7.21;94.05;103820.34;5034222;28;20060;-69
2021/12/18 05:06:17;;;;;;;15.55;9.07;;;;;;;7.17;93.60;103813.50;5034678;28;20047;-70
2021/12/18 05:08:42;;;;;;;15.45;8.93;;;;;;;7.13;93.80;103819.28;5034334;28;20036;-72
2021/12/18 05:11:07;;;;;;;14.93;9.30;;;;;;;7.16;93.84;103814.50;5034410;28;20029;-72
2021/12/18 05:13:33;;;;;;;16.08;9.38;;;;;;;7.12;93.61;103821.09;5034091;28;20021;-72
2021/12/18 05:15:59;;;;;;;14.20;8.60;;;;;;;7.13;94.07;103822.81;5034381;28;20025;-71
2021/12/18 05:18:24;;;;;;;13.63;8.85;;;;;;;7.11;94.10;103816.72;5033968;28;20024;-70
2021/12/18 05:20:50;;;;;;;13.23;8.50;;;;;;;7.09;93.53;103811.44;5034010;28;20037;-71
2021/12/18 05:23:15;;;;;;;15.30;11.55;;;;;;;7.16;94.02;103825.25;5034265;28;20021;-71
2021/12/18 05:25:41;;;;;;;13.35;8.93;;;;;;;7.11;94.70;103819.41;5033694;28;20026;-70
2021/12/18 05:28:06;;;;;;;13.95;8.90;;;;;;;7.09;94.33;103821.38;5034214;28;20109;-72
2021/12/18 05:30:32;;;;;;;14.75;9.27;;;;;;;7.01;94.62;103816.63;5034133;28;20029;-69
2021/12/18 05:32:57;;;;;;;14.55;9.18;;;;;;;6.96;94.79;103824.25;5033628;28;21734;-69
2021/12/18 05:35:23;;;;;;;13.63;8.35;;;;;;;7.00;94.52;103827.53;5033591;28;20172;-69
2021/12/18 05:37:51;;;;;;;15.40;8.85;;;;;;;7.03;94.58;103822.72;5033586;28;20041;-71
2021/12/18 05:40:22;;;;;;;16.17;10.23;;;;;;;7.07;94.47;103823.34;5033443;28;20111;-69
2021/12/18 05:42:50;;;;;;;17.60;10.57;;;;;;;7.17;93.79;103818.91;5033107;28;20495;-72
2021/12/18 05:45:16;;;;;;;18.98;10.38;;;;;;;7.18;94.78;103815.19;5033650;28;20040;-69
2021/12/18 05:47:43;;;;;;;26.30;12.32;;;;;;;7.17;94.65;103810.81;5032783;28;20038;-72
2021/12/18 05:50:10;;;;;;;19.33;11.15;;;;;;;7.21;95.15;103820.34;5023450;28;20029;-69
2021/12/18 05:52:35;;;;;;;21.15;11.80;;;;;;;7.22;94.49;103818.50;5032166;28;20116;-69
2021/12/18 05:55:01;;;;;;;22.00;12.32;;;;;;;7.15;94.38;103818.16;5032970;28;20053;-71
2021/12/18 05:57:27;;;;;;;23.20;12.73;;;;;;;7.07;94.98;103812.56;5033100;28;20037;-71
2021/12/18 05:59:52;;;;;;;25.30;12.98;;;;;;;7.03;95.39;103816.50;5033415;28;20026;-70
2021/12/18 06:02:18;;;;;;;21.90;12.52;;;;;;;7.05;95.71;103822.59;5030750;28;20029;-71
2021/12/18 06:04:44;;;;;;;21.23;11.70;;;;;;;7.10;94.91;103823.09;5033294;28;20040;-72
2021/12/18 06:07:17;;;;;;;21.35;11.35;;;;;;;7.04;95.14;103820.91;5033184;28;20037;-72
2021/12/18 06:09:43;;;;;;;19.98;11.20;;;;;;;7.02;95.42;103821.03;5032805;28;20658;-71
2021/12/18 06:12:09;;;;;;;18.50;11.13;;;;;;;7.06;95.51;103822.47;5033140;28;20116;-71
2021/12/18 06:14:34;;;;;;;20.13;11.00;;;;;;;7.13;95.42;103824.69;5033326;28;20127;-69
2021/12/18 06:17:00;;;;;;;18.30;10.65;;;;;;;7.15;95.11;103820.00;5032860;28;20037;-70
2021/12/18 06:19:25;;;;;;;20.75;11.82;;;;;;;7.10;94.59;103815.00;5033298;28;20456;-74
2021/12/18 06:21:51;;;;;;;18.23;11.10;;;;;;;7.14;95.13;103815.59;5033000;28;20079;-70
2021/12/18 06:24:16;;;;;;;19.40;11.38;;;;;;;7.14;95.04;103816.47;5032918;28;20033;-70
2021/12/18 06:26:42;;;;;;;17.77;10.27;;;;;;;7.14;94.70;103819.16;5032908;28;20036;-71
2021/12/18 06:29:08;;;;;;;17.80;10.45;;;;;;;7.14;94.32;103819.16;5033023;28;20029;-71
2021/12/18 06:31:34;;;;;;;16.60;9.45;;;;;;;7.13;95.13;103817.44;5032810;28;20060;-73
2021/12/18 06:33:59;;;;;;;16.65;10.13;;;;;;;7.17;95.32;103820.72;5032785;28;20028;-71
2021/12/18 06:36:25;;;;;;;17.92;9.90;;;;;;;7.21;95.09;103819.50;5032798;28;20045;-69
2021/12/18 06:38:50;;;;;;;15.93;8.98;;;;;;;7.23;94.71;103821.06;5032159;28;20021;-73
2021/12/18 06:41:15;;;;;;;16.20;9.52;;;;;;;7.27;94.90;103817.13;5032942;28;20061;-71
2021/12/18 06:43:41;;;;;;;16.50;9.77;;;;;;;7.29;94.64;103814.28;5033957;28;20112;-69
2021/12/18 06:46:06;;;;;;;17.50;9.80;;;;;;;7.33;95.01;103812.22;5033857;28;20119;-73
2021/12/18 06:48:32;;;;;;;17.05;10.07;;;;;;;7.34;94.51;103820.16;5032690;28;20064;-70
2021/12/18 06:50:58;;;;;;;15.45;9.70;;;;;;;7.38;94.41;103809.97;5033625;28;20041;-70
2021/12/18 06:53:23;;;;;;;16.40;9.75;;;;;;;7.40;94.87;103818.78;5033740;28;20034;-71
2021/12/18 06:55:48;;;;;;;17.23;9.60;;;;;;;7.40;94.09;103808.00;5032487;28;20082;-71
2021/12/18 06:58:13;;;;;;;18.60;9.85;;;;;;;7.39;94.26;103809.84;5033911;28;20449;-73
2021/12/18 07:00:39;;;;;;;16.67;9.88;;;;;;;7.42;93.95;103814.97;5030907;28;20021;-71
2021/12/18 07:03:04;;;;;;;16.80;10.05;;;;;;;7.42;94.28;103811.41;5032273;28;20033;-72
2021/12/18 07:05:29;;;;;;;15.55;9.43;;;;;;;7.41;94.27;103812.41;5033348;28;20354;-70
2021/12/18 07:07:56;;;;;;;15.05;9.55;;;;;;;7.41;94.39;103815.09;5031827;28;20021;-71
2021/12/18 07:10:21;;;;;;;14.57;8.90;;;;;;;7.37;93.90;103809.13;5033485;28;20029;-69
2021/12/18 07:12:47;;;;;;;14.43;8.43;;;;;;;7.37;93.63;103813.66;5033388;28;20439;-73
2021/12/18 07:15:13;;;;;;;13.65;8.32;;;;;;;7.33;94.13;103804.13;5033993;28;20034;-69
2021/12/18 07:17:39;;;;;;;16.23;9.48;;;;;;;7.37;94.57;103808.28;5033557;28;20087;-70
2021/12/18 07:20:06;;;;;;;14.02;7.82;;;;;;;7.37;94.39;103808.28;5031982;28;20034;-74
2021/12/18 07:22:32;;;;;;;14.60;8.13;;;;;;;7.38;94.27;103810.84;5033055;28;20026;-70
2021/12/18 07:24:57;;;;;;;14.15;8.00;;;;;;;7.41;93.90;103812.41;5031536;28;20041;-73
2021/12/18 07:27:22;;;;;;;14.30;8.32;;;;;;;7.42;93.95;103806.03;5033267;28;20025;-73
2021/12/18 07:29:48;;;;;;;12.60;7.80;;;;;;;7.46;93.79;103810.19;5033117;28;20544;-69
2021/12/18 07:32:13;;;;;;;15.95;8.27;;;;;;;7.43;93.77;103808.59;5033311;28;20465;-72
2021/12/18 07:34:39;;;;;;;16.40;8.60;;;;;;;7.39;93.44;103804.44;5033169;28;20029;-69
2021/12/18 07:37:04;;;;;;;15.68;8.85;;;;;;;7.40;93.56;103806.16;5032901;28;20075;-72
2021/12/18 07:39:29;;;;;;;14.07;8.32;;;;;;;7.45;94.06;103811.16;5032547;28;20036;-73
2021/12/18 07:41:54;;;;;;;15.10;8.20;;;;;;;7.43;93.93;103811.28;5032851;28;20087;-72
2021/12/18 07:44:20;;;;;;;15.25;8.43;;;;;;;7.44;93.94;103815.69;5031716;28;20469;-70
2021/12/18 07:46:45;;;;;;;15.82;8.20;;;;;;;7.48;94.12;103824.38;5032498;28;20067;-72
2021/12/18 07:49:11;;;;;;;18.20;8.65;;;;;;;7.45;94.20;103824.63;5032599;28;20029;-72
2021/12/18 07:51:37;;;;;;;18.02;9.32;;;;;;;7.42;94.11;103822.19;5032914;28;20523;-71
2021/12/18 07:54:03;;;;;;;16.92;9.15;;;;;;;7.42;93.95;103822.19;5032437;28;20056;-74
2021/12/18 07:56:29;;;;;;;17.33;9.40;;;;;;;7.34;94.19;103827.41;5033154;28;20033;-70
2021/12/18 07:58:54;;;;;;;18.45;10.02;;;;;;;7.31;94.15;103824.94;5032689;28;20445;-71
2021/12/18 08:01:20;;;;;;;17.75;9.57;;;;;;;7.32;94.23;103823.97;5030497;28;20393;-70
2021/12/18 08:03:45;;;;;;;15.50;8.75;;;;;;;7.26;94.85;103819.94;5032348;28;20022;-74
2021/12/18 08:06:11;;;;;;;17.05;8.32;;;;;;;7.25;95.20;103823.63;5032511;28;20026;-75
2021/12/18 08:08:36;;;;;;;14.93;8.05;;;;;;;7.28;94.97;103826.06;5032076;28;20047;-70
2021/12/18 08:11:02;;;;;;;15.23;8.38;;;;;;;7.33;95.24;103829.22;5032375;28;20095;-74
2021/12/18 08:13:28;;;;;;;14.07;8.05;;;;;;;7.34;95.08;103824.69;5031275;28;20068;-73
2021/12/18 08:15:53;;;;;;;15.27;8.07;;;;;;;7.32;95.11;103821.25;5032435;28;20029;-73
2021/12/18 08:18:19;;;;;;;16.67;8.98;;;;;;;7.37;94.79;103819.06;5031369;28;20037;-70
2021/12/18 08:20:44;;;;;;;16.23;8.48;;;;;;;7.34;94.75;103828.25;5032440;28;20092;-71
2021/12/18 08:23:09;;;;;;;17.02;8.55;;;;;;;7.37;94.74;103824.44;5032080;28;20037;-71
2021/12/18 08:25:35;;;;;;;13.00;7.15;;;;;;;7.26;94.96;103828.91;5031825;28;20044;-70
2021/12/18 08:28:03;;;;;;;15.02;8.10;;;;;;;7.23;94.79;103821.06;5032375;28;20033;-73
2021/12/18 08:30:30;;;;;;;13.40;7.10;;;;;;;7.23;95.20;103831.84;5032448;28;20385;-70
2021/12/18 08:32:58;;;;;;;14.30;6.95;;;;;;;7.18;94.88;103823.28;5032518;28;20045;-71
2021/12/18 08:35:25;;;;;;;12.07;6.47;;;;;;;7.19;95.27;103827.69;5032194;28;20064;-72
2021/12/18 08:37:51;;;;;;;11.05;5.75;;;;;;;7.13;94.99;103822.00;5032080;28;20374;-73
2021/12/18 08:40:16;;;;;;;9.57;5.97;;;;;;;7.14;95.65;103815.59;5030908;28;20068;-73
2021/12/18 08:42:41;;;;;;;11.57;5.85;;;;;;;7.17;96.04;103818.03;5032129;28;20108;-73
2021/12/18 08:45:07;;;;;;;11.10;5.90;;;;;;;7.17;95.41;103823.41;5032069;28;20036;-72
2021/12/18 08:47:33;;;;;;;12.07;5.97;;;;;;;7.24;95.91;103828.16;5032165;28;20026;-71
2021/12/18 08:50:00;;;;;;;9.77;5.43;;;;;;;7.22;94.95;103822.06;5031909;28;20405;-73
2021/12/18 08:52:25;;;;;;;12.30;6.28;;;;;;;7.27;95.25;103822.50;5030808;28;20381;-73
2021/12/18 08:54:50;;;;;;;11.43;6.05;;;;;;;7.31;95.41;103823.13;5031725;28;20033;-70
2021/12/18 08:57:16;;;;;;;10.80;5.97;;;;;;;7.25;94.92;103824.47;5032512;28;20053;-69
2021/12/18 08:59:41;;;;;;;13.70;6.80;;;;;;;7.25;94.73;103820.94;5032099;28;20025;-71
2021/12/18 09:02:08;;;;;;;12.80;6.55;;;;;;;7.30;95.37;103831.31;5029462;28;20431;-73
2021/12/18 09:04:34;;;;;;;10.57;6.40;;;;;;;7.32;95.81;103824.81;5032164;28;20029;-70
2021/12/18 09:06:59;;;;;;;10.25;5.72;;;;;;;7.26;95.61;103823.50;5031937;28;20519;-72
2021/12/18 09:09:24;;;;;;;10.95;5.80;;;;;;;7.24;95.63;103827.31;5031752;28;20037;-73
2021/12/18 09:11:50;;;;;;;12.05;6.30;;;;;;;7.23;95.57;103826.47;5030582;28;20037;-73
2021/12/18 09:14:15;;;;;;;11.57;5.68;;;;;;;7.25;96.14;103832.56;5032026;28;20480;-70
2021/12/18 09:16:40;;;;;;;10.35;5.47;;;;;;;7.27;95.52;103835.13;5032029;28;20056;-73
2021/12/18 09:19:06;;;;;;;12.15;5.70;;;;;;;7.19;95.55;103824.16;5030515;28;20045;-72
2021/12/18 09:21:31;;;;;;;10.40;5.45;;;;;;;7.20;95.47;103826.72;5031922;28;20385;-70
2021/12/18 09:23:56;;;;;;;10.60;5.38;;;;;;;7.24;95.21;103825.47;5032651;28;20037;-70
2021/12/18 09:26:22;;;;;;;11.35;5.63;;;;;;;7.30;95.30;103823.25;5034231;28;20393;-72
2021/12/18 09:28:47;;;;;;;9.13;5.00;;;;;;;7.30;95.14;103828.63;5033851;28;20029;-69
2021/12/18 09:31:13;;;;;;;12.20;5.63;;;;;;;7.37;95.17;103827.13;5035054;28;20021;-73
2021/12/18 09:33:38;;;;;;;10.48;5.05;;;;;;;7.40;95.26;103822.31;5033966;28;20033;-72
2021/12/18 09:36:03;;;;;;;10.15;5.40;;;;;;;7.45;94.93;103830.88;5035287;28;20439;-75
2021/12/18 09:38:29;;;;;;;11.20;6.10;;;;;;;7.50;94.67;103827.78;5033563;28;20112;-71
2021/12/18 09:40:58;;;;;;;10.35;5.63;;;;;;;7.52;94.42;103828.53;5035105;28;20036;-75
2021/12/18 09:43:23;;;;;;;9.52;5.65;;;;;;;7.57;94.31;103825.44;5035272;28;20021;-74
2021/12/18 09:45:49;;;;;;;8.45;4.93;;;;;;;7.62;94.69;103829.44;5035310;28;20515;-74
2021/12/18 09:48:14;;;;;;;10.63;4.82;;;;;;;7.61;94.18;103825.03;5034970;28;20033;-76
2021/12/18 09:50:42;;;;;;;13.55;5.97;;;;;;;7.61;94.00;103821.50;5034548;28;20033;-72
2021/12/18 09:53:08;;;;;;;11.38;5.82;;;;;;;7.66;94.05;103819.25;5033220;28;20442;-72
2021/12/18 09:55:33;;;;;;;11.63;5.93;;;;;;;7.68;93.46;103821.81;5049817;28;20033;-76
2021/12/18 09:57:59;;;;;;;10.57;5.93;;;;;;;7.65;93.98;103813.97;5034807;28;20365;-73
2021/12/18 10:00:24;;;;;;;9.90;5.85;;;;;;;7.66;93.72;103813.00;5033005;28;20041;-73
2021/12/18 10:02:51;;;;;;;12.00;6.43;;;;;;;7.63;93.70;103812.25;5032203;28;20488;-73
2021/12/18 10:05:25;;;;;;;10.57;5.70;;;;;;;7.71;94.58;103811.59;5033362;28;20033;-70
2021/12/18 10:08:18;;;;;;;11.23;5.85;;;;;;;7.75;94.13;103812.19;5034464;28;20021;-72
2021/12/18 10:11:01;;;;;;;10.43;6.20;;;;;;;7.74;93.94;103797.84;5033115;28;20098;-74
2021/12/18 10:13:27;;;;;;;;;;;;;;;7.86;94.25;103806.72;5034774;28;20468;-79
2021/12/18 10:16:11;;;;;;;10.10;5.85;;;;;;;7.74;93.66;103797.84;5033305;28;19916;-75
2021/12/18 10:18:37;;;;;;;8.18;5.22;;;;;;;7.71;93.39;103797.28;5033095;28;20010;-79
2021/12/18 10:21:17;;;;;;;8.50;5.05;;;;;;;7.66;92.74;103794.97;5034647;28;20461;-73
2021/12/18 10:23:45;;;;;;;9.02;5.28;;;;;;;7.61;93.90;103798.06;5034119;28;20094;-74
2021/12/18 10:26:37;;;;;;;8.60;5.13;;;;;;;7.67;93.59;103791.31;5033578;28;20033;-77
2021/12/18 10:29:06;;;;;;;6.85;4.63;;;;;;;7.63;93.49;103793.41;5033067;28;20040;-74
2021/12/18 10:31:48;;;;;;;6.65;4.30;;;;;;;7.59;93.19;103794.66;5034328;28;20036;-74
2021/12/18 10:34:25;;;;;;;7.80;4.50;;;;;;;7.54;93.67;103787.97;5032551;28;20499;-74
2021/12/18 10:37:11;;;;;;;7.05;4.40;;;;;;;7.60;93.17;103790.13;5031524;28;20137;-71
2021/12/18 10:40:01;;;;;;;7.78;4.63;;;;;;;7.60;93.55;103790.97;5032713;28;20040;-73
2021/12/18 10:42:45;;;;;;;5.75;3.72;;;;;;;7.55;94.55;103789.66;5032136;28;20112;-72
2021/12/18 10:45:24;;;;;;;6.70;3.72;;;;;;;7.45;93.57;103797.69;5031962;28;20025;-72
2021/12/18 10:48:03;;;;;;;7.22;3.97;;;;;;;7.44;94.25;103795.97;5032433;28;20021;-72
2021/12/18 10:50:51;;;;;;;6.20;3.85;;;;;;;7.43;93.29;103783.50;5032219;28;20067;-72
2021/12/18 10:53:29;;;;;;;7.53;3.72;;;;;;;7.44;93.95;103790.56;5032044;28;20615;-71
2021/12/18 10:56:03;;;;;;;6.70;3.47;;;;;;;7.44;93.53;103795.97;5031732;28;20090;-73
2021/12/18 10:58:39;;;;;;;7.40;3.70;;;;;;;7.40;94.32;103779.22;5031988;28;20021;-73
2021/12/18 11:01:17;;;;;;;5.60;3.40;;;;;;;7.41;93.58;103780.94;5029785;28;20522;-74
2021/12/18 11:03:53;;;;;;;4.38;2.83;;;;;;;7.43;93.50;103778.13;5031997;28;20033;-74
2021/12/18 11:06:31;;;;;;;4.50;2.85;;;;;;;7.45;92.86;103773.44;5030171;28;20032;-74
2021/12/18 11:09:15;;;;;;;4.55;3.00;;;;;;;7.47;93.75;103773.31;5031657;28;20026;-72
2021/12/18 11:14:17;;;;;;;4.75;2.92;;;;;;;7.52;93.14;103780.00;5032767;28;20041;-72
2021/12/18 11:16:51;;;;;;;4.30;2.72;;;;;;;7.49;92.55;103784.78;5031927;28;20464;-72
2021/12/18 11:19:24;;;;;;;4.38;2.95;;;;;;;7.58;93.61;103782.16;5030817;28;20388;-74
2021/12/18 11:21:57;;;;;;;5.00;3.00;;;;;;;7.56;92.93;103781.47;5028580;28;20036;-74
2021/12/18 11:24:41;;;;;;;3.72;2.83;;;;;;;7.63;93.31;103779.06;5030195;28;20037;-74
2021/12/18 11:27:20;;;;;;;5.57;3.38;;;;;;;7.57;93.12;103776.91;5017419;28;20036;-76
2021/12/18 11:29:55;;;;;;;4.65;3.50;;;;;;;7.61;92.89;103771.13;5021390;28;20025;-73
2021/12/18 11:32:29;;;;;;;4.15;3.10;;;;;;;7.58;92.57;103773.25;5047613;28;20059;-73
2021/12/18 11:35:06;;;;;;;6.82;4.65;;;;;;;7.60;92.62;103769.41;5012971;28;20446;-76
2021/12/18 11:37:47;;;;;;;7.10;4.80;;;;;;;7.62;92.50;103771.97;5012640;28;20121;-74
2021/12/18 11:40:24;;;;;;;7.13;4.45;;;;;;;7.60;93.08;103766.72;5032547;28;20385;-74
2021/12/18 11:42:50;;;;;;;6.55;4.20;;;;;;;7.57;93.57;103766.97;5031843;28;20071;-74
2021/12/18 11:45:15;;;;;;;6.95;3.90;;;;;;;7.57;93.39;103758.06;5031374;28;20595;-73
2021/12/18 11:47:44;;;;;;;6.70;4.28;;;;;;;7.52;93.39;103760.28;5030960;28;20392;-72
2021/12/18 11:50:09;;;;;;;6.85;4.15;;;;;;;7.57;93.95;103769.69;5031359;28;20028;-72
2021/12/18 11:52:59;;;;;;;11.07;4.78;;;;;;;7.55;93.22;103770.78;5032337;28;20025;-72
2021/12/18 11:55:28;;;;;;;7.78;4.82;;;;;;;7.47;93.09;103755.28;5032912;28;20033;-75
2021/12/18 11:57:58;;;;;;;8.90;4.88;;;;;;;7.45;94.36;103759.97;5031057;28;20034;-74
2021/12/18 12:00:34;;;;;;;8.48;5.18;;;;;;;7.39;93.61;103745.19;5026768;28;20029;-78
2021/12/18 12:03:00;;;;;;;8.45;4.80;;;;;;;7.34;93.89;103746.59;5020303;28;20029;-75
2021/12/18 12:05:48;;;;;;;7.50;4.95;;;;;;;7.41;94.16;103745.91;5033909;28;20037;-78
2021/12/18 12:08:31;;;;;;;6.25;4.00;;;;;;;7.35;93.62;103742.88;5017307;28;20105;-73
2021/12/18 12:11:25;;;;;;;5.53;3.70;;;;;;;7.32;94.50;103751.22;5027807;28;20038;-75
2021/12/18 12:13:57;;;;;;;8.68;3.88;;;;;;;7.30;93.99;103754.06;5016141;28;20022;-73
2021/12/18 12:16:44;;;;;;;10.80;4.10;;;;;;;7.30;94.14;103745.13;5026404;28;20037;-79